sensor_id;sensor_type;location;lat;lon;timestamp;P1;durP1;ratioP1;P2;durP2;ratioP2
54937;SDS011;52756;52.826;6.214;2024-01-15T00:00:38;13.77;;;2.33;;
54937;SDS011;52756;52.826;6.214;2024-01-15T00:03:04;7.97;;;1.63;;
54937;SDS011;52756;52.826;6.214;2024-01-15T00:05:29;9.47;;;1.80;;
54937;SDS011;52756;52.826;6.214;2024-01-15T00:07:55;11.33;;;1.47;;
54937;SDS011;52756;52.826;6.214;2024-01-15T00:10:21;10.25;;;1.52;;
54937;SDS011;52756;52.826;6.214;2024-01-15T00:12:46;14.07;;;2.37;;
54937;SDS011;52756;52.826;6.214;2024-01-15T00:15:12;13.40;;;2.00;;
54937;SDS011;52756;52.826;6.214;2024-01-15T00:17:38;9.30;;;1.80;;
54937;SDS011;52756;52.826;6.214;2024-01-15T00:20:04;9.23;;;2.00;;
54937;SDS011;52756;52.826;6.214;2024-01-15T00:22:30;10.40;;;2.03;;
54937;SDS011;52756;52.826;6.214;2024-01-15T00:24:56;15.32;;;1.90;;
54937;SDS011;52756;52.826;6.214;2024-01-15T00:27:22;9.95;;;1.52;;
54937;SDS011;52756;52.826;6.214;2024-01-15T00:29:48;10.45;;;1.30;;
54937;SDS011;52756;52.826;6.214;2024-01-15T00:32:15;10.87;;;1.50;;
54937;SDS011;52756;52.826;6.214;2024-01-15T00:34:41;13.17;;;2.00;;
54937;SDS011;52756;52.826;6.214;2024-01-15T00:37:07;11.32;;;1.67;;
54937;SDS011;52756;52.826;6.214;2024-01-15T00:39:32;10.23;;;2.28;;
54937;SDS011;52756;52.826;6.214;2024-01-15T00:41:58;12.88;;;2.22;;
54937;SDS011;52756;52.826;6.214;2024-01-15T00:44:24;8.00;;;2.08;;
54937;SDS011;52756;52.826;6.214;2024-01-15T00:46:49;8.88;;;1.50;;
54937;SDS011;52756;52.826;6.214;2024-01-15T00:49:15;13.55;;;1.65;;
54937;SDS011;52756;52.826;6.214;2024-01-15T00:51:41;9.47;;;2.30;;
54937;SDS011;52756;52.826;6.214;2024-01-15T00:54:07;11.63;;;1.50;;
54937;SDS011;52756;52.826;6.214;2024-01-15T00:56:32;7.90;;;1.67;;
54937;SDS011;52756;52.826;6.214;2024-01-15T00:58:58;12.37;;;1.90;;
54937;SDS011;52756;52.826;6.214;2024-01-15T01:01:24;12.98;;;2.28;;
54937;SDS011;52756;52.826;6.214;2024-01-15T01:03:50;12.17;;;1.93;;
54937;SDS011;52756;52.826;6.214;2024-01-15T01:06:16;8.18;;;1.45;;
54937;SDS011;52756;52.826;6.214;2024-01-15T01:08:41;12.23;;;1.80;;
54937;SDS011;52756;52.826;6.214;2024-01-15T01:11:07;12.02;;;1.85;;
54937;SDS011;52756;52.826;6.214;2024-01-15T01:13:32;13.85;;;2.88;;
54937;SDS011;52756;52.826;6.214;2024-01-15T01:15:58;9.57;;;1.83;;
54937;SDS011;52756;52.826;6.214;2024-01-15T01:18:24;17.52;;;2.33;;
54937;SDS011;52756;52.826;6.214;2024-01-15T01:20:49;17.40;;;4.38;;
54937;SDS011;52756;52.826;6.214;2024-01-15T01:23:16;13.55;;;2.53;;
54937;SDS011;52756;52.826;6.214;2024-01-15T01:25:41;11.17;;;2.57;;
54937;SDS011;52756;52.826;6.214;2024-01-15T01:28:07;10.52;;;2.03;;
54937;SDS011;52756;52.826;6.214;2024-01-15T01:30:32;13.38;;;2.30;;
54937;SDS011;52756;52.826;6.214;2024-01-15T01:32:58;8.77;;;1.30;;
54937;SDS011;52756;52.826;6.214;2024-01-15T01:35:23;7.22;;;1.23;;
54937;SDS011;52756;52.826;6.214;2024-01-15T01:37:49;11.50;;;2.72;;
54937;SDS011;52756;52.826;6.214;2024-01-15T01:40:15;6.50;;;1.40;;
54937;SDS011;52756;52.826;6.214;2024-01-15T01:42:41;8.27;;;1.60;;
54937;SDS011;52756;52.826;6.214;2024-01-15T01:45:06;5.90;;;0.73;;
54937;SDS011;52756;52.826;6.214;2024-01-15T01:47:32;4.80;;;0.60;;
54937;SDS011;52756;52.826;6.214;2024-01-15T01:49:58;4.70;;;0.65;;
54937;SDS011;52756;52.826;6.214;2024-01-15T01:52:24;5.63;;;0.73;;
54937;SDS011;52756;52.826;6.214;2024-01-15T01:54:50;4.47;;;0.70;;
54937;SDS011;52756;52.826;6.214;2024-01-15T01:57:16;3.90;;;0.43;;
54937;SDS011;52756;52.826;6.214;2024-01-15T01:59:43;3.33;;;0.60;;
54937;SDS011;52756;52.826;6.214;2024-01-15T02:02:10;6.80;;;0.88;;
54937;SDS011;52756;52.826;6.214;2024-01-15T02:04:36;6.93;;;1.00;;
54937;SDS011;52756;52.826;6.214;2024-01-15T02:07:03;4.75;;;1.00;;
54937;SDS011;52756;52.826;6.214;2024-01-15T02:09:29;5.25;;;0.82;;
54937;SDS011;52756;52.826;6.214;2024-01-15T02:11:55;5.88;;;0.65;;
54937;SDS011;52756;52.826;6.214;2024-01-15T02:14:20;9.52;;;1.20;;
54937;SDS011;52756;52.826;6.214;2024-01-15T02:16:46;7.80;;;2.85;;
54937;SDS011;52756;52.826;6.214;2024-01-15T02:19:16;5.63;;;0.88;;
54937;SDS011;52756;52.826;6.214;2024-01-15T02:21:42;7.10;;;1.10;;
54937;SDS011;52756;52.826;6.214;2024-01-15T02:24:08;9.48;;;1.23;;
54937;SDS011;52756;52.826;6.214;2024-01-15T02:26:33;6.88;;;0.90;;
54937;SDS011;52756;52.826;6.214;2024-01-15T02:29:01;4.97;;;0.70;;
54937;SDS011;52756;52.826;6.214;2024-01-15T02:31:27;5.95;;;1.00;;
54937;SDS011;52756;52.826;6.214;2024-01-15T02:33:52;4.23;;;0.87;;
54937;SDS011;52756;52.826;6.214;2024-01-15T02:36:18;3.03;;;0.88;;
54937;SDS011;52756;52.826;6.214;2024-01-15T02:38:43;3.63;;;0.60;;
54937;SDS011;52756;52.826;6.214;2024-01-15T02:41:09;4.75;;;0.90;;
54937;SDS011;52756;52.826;6.214;2024-01-15T02:43:35;3.25;;;0.73;;
54937;SDS011;52756;52.826;6.214;2024-01-15T02:46:00;2.95;;;0.85;;
54937;SDS011;52756;52.826;6.214;2024-01-15T02:48:26;5.60;;;0.70;;
54937;SDS011;52756;52.826;6.214;2024-01-15T02:50:51;5.95;;;1.30;;
54937;SDS011;52756;52.826;6.214;2024-01-15T02:53:17;7.13;;;0.90;;
54937;SDS011;52756;52.826;6.214;2024-01-15T02:55:42;8.13;;;0.90;;
54937;SDS011;52756;52.826;6.214;2024-01-15T02:58:08;9.43;;;1.30;;
54937;SDS011;52756;52.826;6.214;2024-01-15T03:00:34;7.32;;;1.80;;
54937;SDS011;52756;52.826;6.214;2024-01-15T03:02:59;6.30;;;1.20;;
54937;SDS011;52756;52.826;6.214;2024-01-15T03:05:25;6.55;;;1.13;;
54937;SDS011;52756;52.826;6.214;2024-01-15T03:07:50;9.10;;;1.30;;
54937;SDS011;52756;52.826;6.214;2024-01-15T03:10:16;9.40;;;2.33;;
54937;SDS011;52756;52.826;6.214;2024-01-15T03:12:42;12.50;;;2.10;;
54937;SDS011;52756;52.826;6.214;2024-01-15T03:15:07;9.15;;;1.73;;
54937;SDS011;52756;52.826;6.214;2024-01-15T03:17:33;10.80;;;1.27;;
54937;SDS011;52756;52.826;6.214;2024-01-15T03:19:59;10.75;;;1.85;;
54937;SDS011;52756;52.826;6.214;2024-01-15T03:22:25;8.52;;;1.23;;
54937;SDS011;52756;52.826;6.214;2024-01-15T03:24:50;9.65;;;1.63;;
54937;SDS011;52756;52.826;6.214;2024-01-15T03:27:17;10.20;;;1.42;;
54937;SDS011;52756;52.826;6.214;2024-01-15T03:29:42;8.40;;;1.13;;
54937;SDS011;52756;52.826;6.214;2024-01-15T03:32:08;7.03;;;1.17;;
54937;SDS011;52756;52.826;6.214;2024-01-15T03:34:34;8.23;;;1.48;;
54937;SDS011;52756;52.826;6.214;2024-01-15T03:36:59;8.52;;;1.73;;
54937;SDS011;52756;52.826;6.214;2024-01-15T03:39:25;13.57;;;1.83;;
54937;SDS011;52756;52.826;6.214;2024-01-15T03:41:50;5.97;;;1.20;;
54937;SDS011;52756;52.826;6.214;2024-01-15T03:44:16;6.33;;;1.40;;
54937;SDS011;52756;52.826;6.214;2024-01-15T03:46:42;10.00;;;1.58;;
54937;SDS011;52756;52.826;6.214;2024-01-15T03:49:07;10.13;;;1.92;;
54937;SDS011;52756;52.826;6.214;2024-01-15T03:51:33;9.02;;;1.67;;
54937;SDS011;52756;52.826;6.214;2024-01-15T03:53:58;8.13;;;1.25;;
54937;SDS011;52756;52.826;6.214;2024-01-15T03:56:24;5.05;;;1.10;;
54937;SDS011;52756;52.826;6.214;2024-01-15T03:58:50;11.10;;;2.15;;
54937;SDS011;52756;52.826;6.214;2024-01-15T04:01:15;10.18;;;1.70;;
54937;SDS011;52756;52.826;6.214;2024-01-15T04:03:41;12.40;;;1.92;;
54937;SDS011;52756;52.826;6.214;2024-01-15T04:06:06;9.02;;;1.92;;
54937;SDS011;52756;52.826;6.214;2024-01-15T04:08:32;17.92;;;2.47;;
54937;SDS011;52756;52.826;6.214;2024-01-15T04:10:57;15.73;;;1.88;;
54937;SDS011;52756;52.826;6.214;2024-01-15T04:13:23;9.93;;;2.20;;
54937;SDS011;52756;52.826;6.214;2024-01-15T04:15:49;12.27;;;1.77;;
54937;SDS011;52756;52.826;6.214;2024-01-15T04:18:15;14.07;;;2.42;;
54937;SDS011;52756;52.826;6.214;2024-01-15T04:20:41;8.68;;;2.00;;
54937;SDS011;52756;52.826;6.214;2024-01-15T04:23:07;10.23;;;1.67;;
54937;SDS011;52756;52.826;6.214;2024-01-15T04:25:33;8.15;;;1.40;;
54937;SDS011;52756;52.826;6.214;2024-01-15T04:27:58;10.50;;;1.67;;
54937;SDS011;52756;52.826;6.214;2024-01-15T04:30:24;7.15;;;1.45;;
54937;SDS011;52756;52.826;6.214;2024-01-15T04:32:49;11.35;;;1.50;;
54937;SDS011;52756;52.826;6.214;2024-01-15T04:35:15;12.55;;;1.60;;
54937;SDS011;52756;52.826;6.214;2024-01-15T04:37:41;10.00;;;1.50;;
54937;SDS011;52756;52.826;6.214;2024-01-15T04:40:06;12.07;;;1.60;;
54937;SDS011;52756;52.826;6.214;2024-01-15T04:42:33;8.50;;;1.48;;
54937;SDS011;52756;52.826;6.214;2024-01-15T04:44:59;9.90;;;1.67;;
54937;SDS011;52756;52.826;6.214;2024-01-15T04:47:25;10.82;;;2.28;;
54937;SDS011;52756;52.826;6.214;2024-01-15T04:49:50;5.90;;;1.20;;
54937;SDS011;52756;52.826;6.214;2024-01-15T04:52:16;6.72;;;1.50;;
54937;SDS011;52756;52.826;6.214;2024-01-15T04:54:42;8.27;;;1.30;;
54937;SDS011;52756;52.826;6.214;2024-01-15T04:57:07;7.82;;;1.02;;
54937;SDS011;52756;52.826;6.214;2024-01-15T04:59:33;6.50;;;1.63;;
54937;SDS011;52756;52.826;6.214;2024-01-15T05:01:58;9.43;;;1.48;;
54937;SDS011;52756;52.826;6.214;2024-01-15T05:04:24;6.38;;;1.33;;
54937;SDS011;52756;52.826;6.214;2024-01-15T05:06:50;10.50;;;1.65;;
54937;SDS011;52756;52.826;6.214;2024-01-15T05:09:16;5.33;;;1.30;;
54937;SDS011;52756;52.826;6.214;2024-01-15T05:11:42;6.78;;;1.20;;
54937;SDS011;52756;52.826;6.214;2024-01-15T05:14:08;8.77;;;1.38;;
54937;SDS011;52756;52.826;6.214;2024-01-15T05:16:34;7.95;;;1.88;;
54937;SDS011;52756;52.826;6.214;2024-01-15T05:18:59;11.98;;;1.40;;
54937;SDS011;52756;52.826;6.214;2024-01-15T05:21:25;12.40;;;1.60;;
54937;SDS011;52756;52.826;6.214;2024-01-15T05:23:51;7.85;;;1.40;;
54937;SDS011;52756;52.826;6.214;2024-01-15T05:26:16;7.50;;;1.40;;
54937;SDS011;52756;52.826;6.214;2024-01-15T05:28:42;4.95;;;1.33;;
54937;SDS011;52756;52.826;6.214;2024-01-15T05:31:08;9.88;;;1.52;;
54937;SDS011;52756;52.826;6.214;2024-01-15T05:33:34;7.10;;;1.27;;
54937;SDS011;52756;52.826;6.214;2024-01-15T05:35:59;6.13;;;1.05;;
54937;SDS011;52756;52.826;6.214;2024-01-15T05:38:25;8.38;;;1.67;;
54937;SDS011;52756;52.826;6.214;2024-01-15T05:40:51;9.98;;;1.40;;
54937;SDS011;52756;52.826;6.214;2024-01-15T05:43:16;7.25;;;1.20;;
54937;SDS011;52756;52.826;6.214;2024-01-15T05:45:42;8.18;;;1.38;;
54937;SDS011;52756;52.826;6.214;2024-01-15T05:48:08;7.80;;;1.40;;
54937;SDS011;52756;52.826;6.214;2024-01-15T05:50:34;8.93;;;1.50;;
54937;SDS011;52756;52.826;6.214;2024-01-15T05:53:00;6.63;;;1.27;;
54937;SDS011;52756;52.826;6.214;2024-01-15T05:55:25;11.05;;;1.45;;
54937;SDS011;52756;52.826;6.214;2024-01-15T05:57:51;6.25;;;1.20;;
54937;SDS011;52756;52.826;6.214;2024-01-15T06:00:16;8.93;;;1.80;;
54937;SDS011;52756;52.826;6.214;2024-01-15T06:02:44;5.97;;;1.23;;
54937;SDS011;52756;52.826;6.214;2024-01-15T06:05:09;8.70;;;1.80;;
54937;SDS011;52756;52.826;6.214;2024-01-15T06:07:35;9.35;;;1.63;;
54937;SDS011;52756;52.826;6.214;2024-01-15T06:10:01;8.65;;;2.50;;
54937;SDS011;52756;52.826;6.214;2024-01-15T06:12:27;6.80;;;1.13;;
54937;SDS011;52756;52.826;6.214;2024-01-15T06:14:53;6.57;;;1.50;;
54937;SDS011;52756;52.826;6.214;2024-01-15T06:17:19;8.90;;;1.90;;
54937;SDS011;52756;52.826;6.214;2024-01-15T06:19:44;6.28;;;1.33;;
54937;SDS011;52756;52.826;6.214;2024-01-15T06:22:10;9.55;;;1.55;;
54937;SDS011;52756;52.826;6.214;2024-01-15T06:24:36;6.28;;;0.88;;
54937;SDS011;52756;52.826;6.214;2024-01-15T06:27:01;13.82;;;1.77;;
54937;SDS011;52756;52.826;6.214;2024-01-15T06:29:27;9.88;;;1.42;;
54937;SDS011;52756;52.826;6.214;2024-01-15T06:31:53;5.90;;;1.30;;
54937;SDS011;52756;52.826;6.214;2024-01-15T06:34:19;8.73;;;1.52;;
54937;SDS011;52756;52.826;6.214;2024-01-15T06:36:44;6.35;;;1.35;;
54937;SDS011;52756;52.826;6.214;2024-01-15T06:39:10;7.85;;;1.35;;
54937;SDS011;52756;52.826;6.214;2024-01-15T06:41:35;8.63;;;1.33;;
54937;SDS011;52756;52.826;6.214;2024-01-15T06:44:10;9.95;;;1.65;;
54937;SDS011;52756;52.826;6.214;2024-01-15T06:46:36;7.00;;;1.77;;
54937;SDS011;52756;52.826;6.214;2024-01-15T06:49:02;8.82;;;1.33;;
54937;SDS011;52756;52.826;6.214;2024-01-15T06:51:29;10.27;;;1.40;;
54937;SDS011;52756;52.826;6.214;2024-01-15T06:53:54;7.20;;;1.48;;
54937;SDS011;52756;52.826;6.214;2024-01-15T06:56:20;9.77;;;1.33;;
54937;SDS011;52756;52.826;6.214;2024-01-15T06:58:46;7.67;;;1.40;;
54937;SDS011;52756;52.826;6.214;2024-01-15T07:01:11;9.27;;;1.93;;
54937;SDS011;52756;52.826;6.214;2024-01-15T07:03:37;8.67;;;1.80;;
54937;SDS011;52756;52.826;6.214;2024-01-15T07:06:03;7.60;;;1.20;;
54937;SDS011;52756;52.826;6.214;2024-01-15T07:08:29;7.35;;;1.55;;
54937;SDS011;52756;52.826;6.214;2024-01-15T07:10:55;9.77;;;1.30;;
54937;SDS011;52756;52.826;6.214;2024-01-15T07:13:20;5.88;;;1.02;;
54937;SDS011;52756;52.826;6.214;2024-01-15T07:15:46;8.15;;;2.58;;
54937;SDS011;52756;52.826;6.214;2024-01-15T07:18:11;6.85;;;1.38;;
54937;SDS011;52756;52.826;6.214;2024-01-15T07:20:37;7.70;;;1.30;;
54937;SDS011;52756;52.826;6.214;2024-01-15T07:23:03;17.20;;;1.87;;
54937;SDS011;52756;52.826;6.214;2024-01-15T07:25:29;7.60;;;1.05;;
54937;SDS011;52756;52.826;6.214;2024-01-15T07:27:54;10.55;;;2.03;;
54937;SDS011;52756;52.826;6.214;2024-01-15T07:30:20;11.15;;;1.70;;
54937;SDS011;52756;52.826;6.214;2024-01-15T07:32:47;6.65;;;1.50;;
54937;SDS011;52756;52.826;6.214;2024-01-15T07:35:13;6.32;;;1.33;;
54937;SDS011;52756;52.826;6.214;2024-01-15T07:37:40;8.68;;;1.50;;
54937;SDS011;52756;52.826;6.214;2024-01-15T07:40:06;7.63;;;1.65;;
54937;SDS011;52756;52.826;6.214;2024-01-15T07:42:33;9.18;;;1.35;;
54937;SDS011;52756;52.826;6.214;2024-01-15T07:45:03;7.93;;;1.52;;
54937;SDS011;52756;52.826;6.214;2024-01-15T07:47:29;9.02;;;2.03;;
54937;SDS011;52756;52.826;6.214;2024-01-15T07:49:55;9.15;;;2.03;;
54937;SDS011;52756;52.826;6.214;2024-01-15T07:52:21;10.87;;;1.90;;
54937;SDS011;52756;52.826;6.214;2024-01-15T07:54:47;8.52;;;1.63;;
54937;SDS011;52756;52.826;6.214;2024-01-15T07:57:12;15.73;;;1.80;;
54937;SDS011;52756;52.826;6.214;2024-01-15T07:59:38;11.83;;;1.70;;
54937;SDS011;52756;52.826;6.214;2024-01-15T08:02:04;9.98;;;1.85;;
54937;SDS011;52756;52.826;6.214;2024-01-15T08:04:29;6.80;;;1.50;;
54937;SDS011;52756;52.826;6.214;2024-01-15T08:06:55;9.80;;;1.63;;
54937;SDS011;52756;52.826;6.214;2024-01-15T08:09:21;7.53;;;1.40;;
54937;SDS011;52756;52.826;6.214;2024-01-15T08:11:47;9.80;;;1.90;;
54937;SDS011;52756;52.826;6.214;2024-01-15T08:14:14;11.20;;;1.50;;
54937;SDS011;52756;52.826;6.214;2024-01-15T08:16:40;11.02;;;1.90;;
54937;SDS011;52756;52.826;6.214;2024-01-15T08:19:05;9.48;;;1.67;;
54937;SDS011;52756;52.826;6.214;2024-01-15T08:21:31;10.47;;;1.80;;
54937;SDS011;52756;52.826;6.214;2024-01-15T08:24:00;10.73;;;1.90;;
54937;SDS011;52756;52.826;6.214;2024-01-15T08:26:30;10.50;;;2.03;;
54937;SDS011;52756;52.826;6.214;2024-01-15T08:28:57;8.25;;;1.90;;
54937;SDS011;52756;52.826;6.214;2024-01-15T08:31:22;10.20;;;1.50;;
54937;SDS011;52756;52.826;6.214;2024-01-15T08:33:48;10.00;;;1.85;;
54937;SDS011;52756;52.826;6.214;2024-01-15T08:36:14;11.50;;;1.67;;
54937;SDS011;52756;52.826;6.214;2024-01-15T08:38:39;9.65;;;1.73;;
54937;SDS011;52756;52.826;6.214;2024-01-15T08:41:05;9.48;;;1.42;;
54937;SDS011;52756;52.826;6.214;2024-01-15T08:43:31;8.30;;;1.52;;
54937;SDS011;52756;52.826;6.214;2024-01-15T08:45:56;7.30;;;1.33;;
54937;SDS011;52756;52.826;6.214;2024-01-15T08:48:22;7.10;;;1.27;;
54937;SDS011;52756;52.826;6.214;2024-01-15T08:50:48;9.13;;;1.65;;
54937;SDS011;52756;52.826;6.214;2024-01-15T08:53:14;5.75;;;1.23;;
54937;SDS011;52756;52.826;6.214;2024-01-15T08:55:40;5.78;;;1.25;;
54937;SDS011;52756;52.826;6.214;2024-01-15T08:58:07;8.35;;;2.08;;
54937;SDS011;52756;52.826;6.214;2024-01-15T09:00:33;6.40;;;1.20;;
54937;SDS011;52756;52.826;6.214;2024-01-15T09:02:59;7.85;;;1.38;;
54937;SDS011;52756;52.826;6.214;2024-01-15T09:05:25;12.47;;;2.30;;
54937;SDS011;52756;52.826;6.214;2024-01-15T09:07:51;6.50;;;1.35;;
54937;SDS011;52756;52.826;6.214;2024-01-15T09:10:19;10.68;;;1.48;;
54937;SDS011;52756;52.826;6.214;2024-01-15T09:12:45;6.85;;;1.65;;
54937;SDS011;52756;52.826;6.214;2024-01-15T09:15:10;9.98;;;1.60;;
54937;SDS011;52756;52.826;6.214;2024-01-15T09:17:36;11.90;;;2.00;;
54937;SDS011;52756;52.826;6.214;2024-01-15T09:20:02;6.47;;;1.48;;
54937;SDS011;52756;52.826;6.214;2024-01-15T09:22:29;9.18;;;1.20;;
54937;SDS011;52756;52.826;6.214;2024-01-15T09:24:55;7.97;;;1.50;;
54937;SDS011;52756;52.826;6.214;2024-01-15T09:27:20;5.80;;;2.00;;
54937;SDS011;52756;52.826;6.214;2024-01-15T09:29:46;6.90;;;1.33;;
54937;SDS011;52756;52.826;6.214;2024-01-15T09:32:14;5.53;;;1.23;;
54937;SDS011;52756;52.826;6.214;2024-01-15T09:34:41;8.27;;;1.23;;
54937;SDS011;52756;52.826;6.214;2024-01-15T09:37:06;8.57;;;1.60;;
54937;SDS011;52756;52.826;6.214;2024-01-15T09:39:32;11.43;;;1.57;;
54937;SDS011;52756;52.826;6.214;2024-01-15T09:41:57;10.60;;;1.57;;
54937;SDS011;52756;52.826;6.214;2024-01-15T09:44:24;9.50;;;1.20;;
54937;SDS011;52756;52.826;6.214;2024-01-15T09:46:51;7.53;;;2.27;;
54937;SDS011;52756;52.826;6.214;2024-01-15T09:49:17;9.87;;;1.93;;
54937;SDS011;52756;52.826;6.214;2024-01-15T09:51:43;5.43;;;1.13;;
54937;SDS011;52756;52.826;6.214;2024-01-15T09:54:10;4.63;;;0.77;;
54937;SDS011;52756;52.826;6.214;2024-01-15T09:56:38;6.03;;;0.73;;
54937;SDS011;52756;52.826;6.214;2024-01-15T09:59:04;7.20;;;0.90;;
54937;SDS011;52756;52.826;6.214;2024-01-15T10:01:31;7.90;;;0.90;;
54937;SDS011;52756;52.826;6.214;2024-01-15T10:03:57;7.53;;;1.00;;
54937;SDS011;52756;52.826;6.214;2024-01-15T10:06:27;4.73;;;0.60;;
54937;SDS011;52756;52.826;6.214;2024-01-15T10:08:53;7.60;;;0.80;;
54937;SDS011;52756;52.826;6.214;2024-01-15T10:11:21;5.20;;;2.03;;
54937;SDS011;52756;52.826;6.214;2024-01-15T10:13:47;5.47;;;0.93;;
54937;SDS011;52756;52.826;6.214;2024-01-15T10:16:16;4.70;;;0.70;;
54937;SDS011;52756;52.826;6.214;2024-01-15T10:18:41;4.97;;;0.67;;
54937;SDS011;52756;52.826;6.214;2024-01-15T10:21:07;6.43;;;0.80;;
54937;SDS011;52756;52.826;6.214;2024-01-15T10:23:33;4.87;;;0.80;;
54937;SDS011;52756;52.826;6.214;2024-01-15T10:25:59;4.60;;;0.77;;
54937;SDS011;52756;52.826;6.214;2024-01-15T10:28:29;7.27;;;1.07;;
54937;SDS011;52756;52.826;6.214;2024-01-15T10:30:56;5.87;;;0.67;;
54937;SDS011;52756;52.826;6.214;2024-01-15T10:33:24;7.37;;;1.27;;
54937;SDS011;52756;52.826;6.214;2024-01-15T10:35:56;5.83;;;1.33;;
54937;SDS011;52756;52.826;6.214;2024-01-15T10:38:23;6.50;;;0.90;;
54937;SDS011;52756;52.826;6.214;2024-01-15T10:40:56;3.87;;;0.87;;
54937;SDS011;52756;52.826;6.214;2024-01-15T10:43:22;5.57;;;0.80;;
54937;SDS011;52756;52.826;6.214;2024-01-15T10:45:49;11.40;;;1.20;;
54937;SDS011;52756;52.826;6.214;2024-01-15T10:48:18;6.60;;;1.20;;
54937;SDS011;52756;52.826;6.214;2024-01-15T10:50:45;7.33;;;0.70;;
54937;SDS011;52756;52.826;6.214;2024-01-15T10:53:15;2.60;;;0.73;;
54937;SDS011;52756;52.826;6.214;2024-01-15T10:55:42;3.77;;;0.60;;
54937;SDS011;52756;52.826;6.214;2024-01-15T10:58:08;2.53;;;0.50;;
54937;SDS011;52756;52.826;6.214;2024-01-15T11:00:37;4.23;;;0.50;;
54937;SDS011;52756;52.826;6.214;2024-01-15T11:03:04;3.53;;;0.50;;
54937;SDS011;52756;52.826;6.214;2024-01-15T11:05:37;3.03;;;0.30;;
54937;SDS011;52756;52.826;6.214;2024-01-15T11:08:05;1.93;;;0.30;;
54937;SDS011;52756;52.826;6.214;2024-01-15T11:10:45;3.17;;;0.30;;
54937;SDS011;52756;52.826;6.214;2024-01-15T11:18:40;1.10;;;0.30;;
54937;SDS011;52756;52.826;6.214;2024-01-15T11:23:46;3.65;;;0.50;;
54937;SDS011;52756;52.826;6.214;2024-01-15T11:31:56;1.47;;;0.70;;
54937;SDS011;52756;52.826;6.214;2024-01-15T11:34:49;3.30;;;0.60;;
54937;SDS011;52756;52.826;6.214;2024-01-15T11:37:15;5.10;;;0.50;;
54937;SDS011;52756;52.826;6.214;2024-01-15T11:39:41;2.33;;;0.47;;
54937;SDS011;52756;52.826;6.214;2024-01-15T11:42:11;3.17;;;0.73;;
54937;SDS011;52756;52.826;6.214;2024-01-15T11:44:38;4.73;;;0.80;;
54937;SDS011;52756;52.826;6.214;2024-01-15T11:47:04;2.53;;;0.60;;
54937;SDS011;52756;52.826;6.214;2024-01-15T11:52:36;7.83;;;1.00;;
54937;SDS011;52756;52.826;6.214;2024-01-15T11:57:50;5.50;;;1.23;;
54937;SDS011;52756;52.826;6.214;2024-01-15T12:00:17;6.23;;;1.00;;
54937;SDS011;52756;52.826;6.214;2024-01-15T12:02:45;9.57;;;1.73;;
54937;SDS011;52756;52.826;6.214;2024-01-15T12:05:12;6.67;;;0.97;;
54937;SDS011;52756;52.826;6.214;2024-01-15T12:07:44;8.20;;;1.47;;
54937;SDS011;52756;52.826;6.214;2024-01-15T12:10:20;6.17;;;1.20;;
54937;SDS011;52756;52.826;6.214;2024-01-15T12:12:59;4.90;;;0.93;;
54937;SDS011;52756;52.826;6.214;2024-01-15T12:15:28;3.70;;;0.83;;
54937;SDS011;52756;52.826;6.214;2024-01-15T12:17:55;5.97;;;0.90;;
54937;SDS011;52756;52.826;6.214;2024-01-15T12:20:25;2.03;;;0.40;;
54937;SDS011;52756;52.826;6.214;2024-01-15T12:22:51;5.83;;;1.07;;
54937;SDS011;52756;52.826;6.214;2024-01-15T12:25:17;5.20;;;0.60;;
54937;SDS011;52756;52.826;6.214;2024-01-15T12:27:43;5.27;;;1.00;;
54937;SDS011;52756;52.826;6.214;2024-01-15T12:30:13;4.67;;;0.73;;
54937;SDS011;52756;52.826;6.214;2024-01-15T12:32:40;5.10;;;0.70;;
54937;SDS011;52756;52.826;6.214;2024-01-15T12:35:07;5.30;;;0.83;;
54937;SDS011;52756;52.826;6.214;2024-01-15T12:37:34;5.60;;;0.80;;
54937;SDS011;52756;52.826;6.214;2024-01-15T12:40:08;3.60;;;0.77;;
54937;SDS011;52756;52.826;6.214;2024-01-15T12:42:35;4.90;;;0.87;;
54937;SDS011;52756;52.826;6.214;2024-01-15T12:45:02;9.10;;;1.17;;
54937;SDS011;52756;52.826;6.214;2024-01-15T12:47:30;5.10;;;0.93;;
54937;SDS011;52756;52.826;6.214;2024-01-15T12:49:57;5.80;;;0.70;;
54937;SDS011;52756;52.826;6.214;2024-01-15T12:52:26;6.17;;;0.77;;
54937;SDS011;52756;52.826;6.214;2024-01-15T12:54:52;7.10;;;1.00;;
54937;SDS011;52756;52.826;6.214;2024-01-15T12:57:18;4.37;;;0.70;;
54937;SDS011;52756;52.826;6.214;2024-01-15T12:59:44;4.97;;;0.93;;
54937;SDS011;52756;52.826;6.214;2024-01-15T13:02:13;5.60;;;0.80;;
54937;SDS011;52756;52.826;6.214;2024-01-15T13:04:39;7.40;;;1.00;;
54937;SDS011;52756;52.826;6.214;2024-01-15T13:07:08;7.30;;;0.83;;
54937;SDS011;52756;52.826;6.214;2024-01-15T13:09:34;7.73;;;1.20;;
54937;SDS011;52756;52.826;6.214;2024-01-15T13:12:04;6.53;;;0.80;;
54937;SDS011;52756;52.826;6.214;2024-01-15T13:14:30;5.10;;;1.30;;
54937;SDS011;52756;52.826;6.214;2024-01-15T13:16:56;13.17;;;1.10;;
54937;SDS011;52756;52.826;6.214;2024-01-15T13:19:23;7.30;;;1.10;;
54937;SDS011;52756;52.826;6.214;2024-01-15T13:21:49;6.60;;;1.37;;
54937;SDS011;52756;52.826;6.214;2024-01-15T13:24:16;8.70;;;1.40;;
54937;SDS011;52756;52.826;6.214;2024-01-15T13:26:42;5.93;;;1.30;;
54937;SDS011;52756;52.826;6.214;2024-01-15T13:29:08;6.57;;;1.33;;
54937;SDS011;52756;52.826;6.214;2024-01-15T13:31:33;9.47;;;1.87;;
54937;SDS011;52756;52.826;6.214;2024-01-15T13:33:59;5.50;;;1.07;;
54937;SDS011;52756;52.826;6.214;2024-01-15T13:36:25;7.37;;;1.50;;
54937;SDS011;52756;52.826;6.214;2024-01-15T13:38:51;7.17;;;1.70;;
54937;SDS011;52756;52.826;6.214;2024-01-15T13:41:18;5.20;;;1.30;;
54937;SDS011;52756;52.826;6.214;2024-01-15T13:43:49;8.57;;;1.77;;
54937;SDS011;52756;52.826;6.214;2024-01-15T13:46:16;11.37;;;1.70;;
54937;SDS011;52756;52.826;6.214;2024-01-15T13:48:42;10.67;;;1.63;;
54937;SDS011;52756;52.826;6.214;2024-01-15T13:51:08;8.53;;;1.60;;
54937;SDS011;52756;52.826;6.214;2024-01-15T13:53:34;4.93;;;1.70;;
54937;SDS011;52756;52.826;6.214;2024-01-15T13:56:00;13.00;;;1.80;;
54937;SDS011;52756;52.826;6.214;2024-01-15T13:58:25;7.20;;;1.40;;
54937;SDS011;52756;52.826;6.214;2024-01-15T14:00:51;8.23;;;1.23;;
54937;SDS011;52756;52.826;6.214;2024-01-15T14:03:17;10.20;;;2.00;;
54937;SDS011;52756;52.826;6.214;2024-01-15T14:05:44;16.73;;;2.50;;
54937;SDS011;52756;52.826;6.214;2024-01-15T14:08:09;11.63;;;2.13;;
54937;SDS011;52756;52.826;6.214;2024-01-15T14:10:35;13.37;;;1.90;;
54937;SDS011;52756;52.826;6.214;2024-01-15T14:13:02;10.37;;;1.40;;
54937;SDS011;52756;52.826;6.214;2024-01-15T14:15:28;13.97;;;2.10;;
54937;SDS011;52756;52.826;6.214;2024-01-15T14:17:54;10.20;;;2.00;;
54937;SDS011;52756;52.826;6.214;2024-01-15T14:20:20;15.43;;;2.53;;
54937;SDS011;52756;52.826;6.214;2024-01-15T14:22:45;14.00;;;2.00;;
54937;SDS011;52756;52.826;6.214;2024-01-15T14:25:11;15.13;;;3.47;;
54937;SDS011;52756;52.826;6.214;2024-01-15T14:27:36;12.27;;;2.10;;
54937;SDS011;52756;52.826;6.214;2024-01-15T14:30:02;13.63;;;2.43;;
54937;SDS011;52756;52.826;6.214;2024-01-15T14:32:28;8.45;;;2.10;;
54937;SDS011;52756;52.826;6.214;2024-01-15T14:34:54;8.20;;;2.07;;
54937;SDS011;52756;52.826;6.214;2024-01-15T14:37:21;13.33;;;2.23;;
54937;SDS011;52756;52.826;6.214;2024-01-15T14:39:47;7.63;;;1.23;;
54937;SDS011;52756;52.826;6.214;2024-01-15T14:42:12;8.53;;;1.40;;
54937;SDS011;52756;52.826;6.214;2024-01-15T14:44:38;7.07;;;1.10;;
54937;SDS011;52756;52.826;6.214;2024-01-15T14:47:06;9.43;;;1.70;;
54937;SDS011;52756;52.826;6.214;2024-01-15T14:49:33;7.13;;;1.10;;
54937;SDS011;52756;52.826;6.214;2024-01-15T14:51:58;7.80;;;1.13;;
54937;SDS011;52756;52.826;6.214;2024-01-15T14:54:24;8.53;;;1.03;;
54937;SDS011;52756;52.826;6.214;2024-01-15T14:56:50;7.97;;;1.10;;